createdAt,value
2019-04-04T00:01:16.990Z,4.30
2019-04-04T00:03:45.971Z,4.00
2019-04-04T00:06:14.193Z,4.40
2019-04-04T00:08:42.524Z,4.83
2019-04-04T00:11:10.744Z,4.80
2019-04-04T00:13:41.690Z,5.40
2019-04-04T00:16:08.864Z,5.90
2019-04-04T00:18:37.084Z,6.33
2019-04-04T00:21:05.343Z,7.33
2019-04-04T00:23:33.569Z,6.87
2019-04-04T00:26:01.832Z,7.50
2019-04-04T00:28:30.124Z,6.80
2019-04-04T00:30:58.380Z,6.33
2019-04-04T00:33:26.604Z,6.33
2019-04-04T00:35:54.938Z,6.97
2019-04-04T00:38:23.156Z,6.23
2019-04-04T00:40:51.475Z,6.60
2019-04-04T00:43:21.511Z,6.47
2019-04-04T00:45:49.766Z,6.83
2019-04-04T00:48:17.992Z,7.10
2019-04-04T00:50:46.317Z,7.57
2019-04-04T00:53:14.544Z,7.10
2019-04-04T00:55:43.261Z,7.40
2019-04-04T00:58:11.447Z,7.50
2019-04-04T01:00:39.696Z,7.47
2019-04-04T01:03:07.992Z,7.50
2019-04-04T01:05:36.320Z,7.40
2019-04-04T01:08:04.963Z,8.20
2019-04-04T01:10:34.516Z,7.30
2019-04-04T01:13:02.744Z,8.00
2019-04-04T01:15:31.787Z,7.80
2019-04-04T01:18:04.014Z,8.10
2019-04-04T01:20:32.916Z,7.70
2019-04-04T01:23:01.148Z,7.63
2019-04-04T01:25:31.776Z,7.40
2019-04-04T01:27:59.403Z,8.07
2019-04-04T01:30:27.630Z,7.63
2019-04-04T01:32:56.020Z,7.53
2019-04-04T01:35:24.313Z,7.50
2019-04-04T01:37:52.565Z,7.77
2019-04-04T01:40:20.852Z,8.30
2019-04-04T01:42:49.104Z,8.07
2019-04-04T01:45:17.340Z,7.33
2019-04-04T01:47:47.675Z,8.43
2019-04-04T01:50:15.577Z,8.07
2019-04-04T01:52:43.873Z,8.37
2019-04-04T01:55:16.099Z,7.93
2019-04-04T01:57:44.312Z,8.07
2019-04-04T02:00:15.143Z,8.47
2019-04-04T02:02:43.155Z,8.83
2019-04-04T02:05:11.444Z,7.83
2019-04-04T02:07:39.709Z,8.47
2019-04-04T02:10:08.805Z,8.80
2019-04-04T02:12:38.807Z,8.57
2019-04-04T02:15:09.892Z,7.73
2019-04-04T02:17:38.151Z,9.10
2019-04-04T02:20:14.901Z,9.50
2019-04-04T02:22:43.635Z,8.70
2019-04-04T02:25:12.051Z,8.93
2019-04-04T02:27:40.277Z,9.27
2019-04-04T02:30:14.967Z,8.87
2019-04-04T02:32:39.238Z,8.77
2019-04-04T02:35:10.301Z,8.57
2019-04-04T02:37:37.428Z,8.30
2019-04-04T02:40:08.693Z,8.73
2019-04-04T02:42:36.793Z,8.23
2019-04-04T02:45:06.435Z,7.87
2019-04-04T02:47:34.878Z,7.53
2019-04-04T02:50:03.212Z,8.97
2019-04-04T02:52:31.484Z,7.87
2019-04-04T02:54:59.743Z,7.90
2019-04-04T02:57:27.975Z,7.60
2019-04-04T02:59:56.236Z,8.03
2019-04-04T03:02:24.466Z,7.90
2019-04-04T03:04:53.107Z,7.67
2019-04-04T03:07:21.326Z,7.57
2019-04-04T03:09:49.577Z,8.40
2019-04-04T03:12:17.889Z,8.07
2019-04-04T03:14:46.219Z,7.47
2019-04-04T03:17:15.081Z,7.47
2019-04-04T03:19:44.486Z,7.90
2019-04-04T03:22:13.060Z,8.40
2019-04-04T03:24:44.726Z,8.47
2019-04-04T03:27:25.467Z,8.57
2019-04-04T03:29:50.385Z,8.77
2019-04-04T03:32:18.654Z,8.83
2019-04-04T03:34:50.087Z,8.97
2019-04-04T03:37:16.833Z,8.93
2019-04-04T03:39:45.062Z,8.93
2019-04-04T03:42:13.320Z,9.30
2019-04-04T03:44:41.615Z,9.43
2019-04-04T03:47:10.458Z,9.73
2019-04-04T03:49:39.680Z,9.30
2019-04-04T03:52:11.249Z,9.30
2019-04-04T03:54:37.872Z,9.77
2019-04-04T03:57:06.097Z,9.30
2019-04-04T03:59:34.358Z,9.47
2019-04-04T04:02:02.701Z,8.83
2019-04-04T04:04:30.926Z,9.00
2019-04-04T04:06:59.208Z,9.17
2019-04-04T04:09:27.461Z,8.90
2019-04-04T04:11:55.757Z,10.27
2019-04-04T04:14:24.012Z,9.60
2019-04-04T04:16:52.235Z,9.97
2019-04-04T04:19:24.572Z,10.40
2019-04-04T04:21:53.195Z,10.97
2019-04-04T04:24:21.465Z,10.67
2019-04-04T04:26:49.708Z,10.03
2019-04-04T04:29:17.969Z,10.90
2019-04-04T04:31:49.273Z,10.37
2019-04-04T04:34:16.099Z,10.83
2019-04-04T04:36:47.678Z,11.33
2019-04-04T04:39:14.313Z,12.40
2019-04-04T04:41:42.542Z,12.50
2019-04-04T04:44:10.790Z,11.20
2019-04-04T04:46:39.052Z,12.20
2019-04-04T04:49:07.361Z,13.07
2019-04-04T04:51:35.632Z,12.73
2019-04-04T04:54:03.917Z,13.20
2019-04-04T04:56:32.180Z,13.80
2019-04-04T04:59:00.477Z,13.37
2019-04-04T05:01:28.733Z,13.53
2019-04-04T05:03:57.262Z,13.63
2019-04-04T05:06:25.611Z,13.37
2019-04-04T05:08:53.850Z,13.77
2019-04-04T05:11:22.104Z,14.47
2019-04-04T05:13:50.337Z,13.73
2019-04-04T05:16:18.596Z,14.13
2019-04-04T05:18:48.133Z,15.03
2019-04-04T05:21:24.790Z,14.73
2019-04-04T05:23:47.032Z,14.23
2019-04-04T05:26:16.084Z,14.40
2019-04-04T05:28:44.386Z,14.13
2019-04-04T05:31:12.642Z,14.00
2019-04-04T05:33:41.688Z,14.27
2019-04-04T05:36:10.147Z,14.13
2019-04-04T05:38:38.375Z,13.40
2019-04-04T05:41:06.680Z,14.27
2019-04-04T05:43:37.274Z,13.53
2019-04-04T05:46:05.191Z,14.00
2019-04-04T05:48:33.467Z,14.30
2019-04-04T05:51:01.749Z,14.30
2019-04-04T05:53:29.993Z,13.53
2019-04-04T05:55:58.345Z,13.63
2019-04-04T05:58:26.581Z,12.87
2019-04-04T06:00:57.568Z,12.53
2019-04-04T06:03:24.789Z,12.33
2019-04-04T06:05:53.089Z,10.77
2019-04-04T06:08:22.025Z,11.00
2019-04-04T06:10:50.863Z,11.27
2019-04-04T06:13:22.160Z,11.77
2019-04-04T06:15:49.289Z,11.00
2019-04-04T06:18:17.629Z,11.53
2019-04-04T06:20:48.351Z,11.57
2019-04-04T06:23:16.121Z,12.47
2019-04-04T06:25:44.413Z,12.50
2019-04-04T06:28:12.762Z,12.03
2019-04-04T06:30:43.420Z,11.57
2019-04-04T06:33:10.947Z,11.80
2019-04-04T06:35:39.958Z,11.77
2019-04-04T06:38:08.581Z,12.03
2019-04-04T06:40:36.913Z,12.70
2019-04-04T06:43:10.361Z,12.87
2019-04-04T06:45:46.079Z,13.73
2019-04-04T06:48:12.577Z,13.00
2019-04-04T06:50:43.038Z,13.93
2019-04-04T06:53:10.892Z,14.03
2019-04-04T06:55:40.268Z,14.27
2019-04-04T06:58:09.631Z,14.30
2019-04-04T07:00:38.101Z,14.27
2019-04-04T07:03:06.324Z,14.27
2019-04-04T07:05:37.910Z,14.70
2019-04-04T07:08:04.666Z,14.57
2019-04-04T07:10:32.933Z,14.57
2019-04-04T07:13:20.147Z,14.30
2019-04-04T07:15:31.152Z,15.03
2019-04-04T07:17:59.365Z,14.93
2019-04-04T07:20:28.604Z,14.93
2019-04-04T07:22:57.113Z,14.20
2019-04-04T07:25:25.372Z,15.87
2019-04-04T07:27:53.603Z,16.43
2019-04-04T07:30:21.864Z,15.03
2019-04-04T07:32:50.089Z,13.63
2019-04-04T07:35:20.896Z,13.43
2019-04-04T07:37:48.376Z,14.27
2019-04-04T07:40:16.672Z,14.07
2019-04-04T07:42:47.098Z,13.07
2019-04-04T07:45:14.904Z,12.70
2019-04-04T07:47:46.669Z,13.63
2019-04-04T07:50:13.178Z,12.63
2019-04-04T07:52:41.432Z,13.23
2019-04-04T07:55:10.933Z,13.77
2019-04-04T07:57:39.455Z,15.63
2019-04-04T08:00:08.477Z,17.27
2019-04-04T08:02:36.803Z,16.73
2019-04-04T08:05:06.500Z,17.87
2019-04-04T08:07:34.767Z,18.63
2019-04-04T08:10:04.152Z,16.97
2019-04-04T08:12:32.478Z,15.90
2019-04-04T08:15:00.776Z,16.70
2019-04-04T08:17:29.033Z,15.27
2019-04-04T08:19:59.877Z,14.40
2019-04-04T08:22:27.237Z,13.87
2019-04-04T08:24:55.472Z,13.70
2019-04-04T08:27:23.728Z,11.53
2019-04-04T08:29:51.952Z,11.27
2019-04-04T08:32:20.208Z,10.80
2019-04-04T08:34:48.497Z,9.83
2019-04-04T08:37:16.760Z,11.07
2019-04-04T08:39:45.057Z,8.70
2019-04-04T08:42:13.381Z,8.80
2019-04-04T08:44:41.782Z,8.10
2019-04-04T08:47:10.111Z,7.67
2019-04-04T08:49:38.413Z,7.53
2019-04-04T08:52:16.127Z,7.03
2019-04-04T08:54:36.531Z,7.70
2019-04-04T08:57:04.860Z,7.70
2019-04-04T08:59:33.165Z,7.40
2019-04-04T09:02:01.457Z,7.30
2019-04-04T09:04:29.761Z,6.93
2019-04-04T09:06:57.977Z,7.63
2019-04-04T09:09:26.243Z,6.87
2019-04-04T09:11:54.486Z,7.53
2019-04-04T09:14:22.789Z,7.20
2019-04-04T09:16:51.118Z,7.17
2019-04-04T09:19:19.421Z,6.50
2019-04-04T09:21:47.672Z,7.10
2019-04-04T09:24:15.964Z,6.53
2019-04-04T09:26:44.184Z,6.80
2019-04-04T09:29:12.442Z,6.53
2019-04-04T09:31:40.697Z,6.57
2019-04-04T09:34:08.913Z,6.17
2019-04-04T09:36:37.169Z,7.23
2019-04-04T09:39:06.332Z,6.93
2019-04-04T09:41:34.674Z,7.00
2019-04-04T09:44:05.797Z,7.33
2019-04-04T09:46:32.967Z,7.23
2019-04-04T09:49:01.294Z,7.13
2019-04-04T09:51:29.613Z,8.50
2019-04-04T09:53:57.937Z,8.07
2019-04-04T09:56:26.212Z,8.70
2019-04-04T09:58:55.049Z,8.20
2019-04-04T10:01:23.458Z,7.30
2019-04-04T10:03:51.782Z,7.93
2019-04-04T10:06:20.017Z,8.00
2019-04-04T10:08:48.316Z,7.77
2019-04-04T10:11:16.560Z,7.30
2019-04-04T10:13:46.200Z,7.60
2019-04-04T10:16:14.533Z,7.20
2019-04-04T10:18:42.781Z,7.57
2019-04-04T10:21:12.445Z,8.33
2019-04-04T10:23:41.137Z,8.53
2019-04-04T10:26:09.457Z,9.03
2019-04-04T10:28:37.765Z,9.73
2019-04-04T10:31:06.112Z,9.60
2019-04-04T10:33:34.419Z,10.73
2019-04-04T10:36:02.686Z,10.83
2019-04-04T10:38:30.913Z,11.40
2019-04-04T10:40:59.188Z,10.93
2019-04-04T10:43:27.417Z,9.93
2019-04-04T10:45:55.681Z,10.63
2019-04-04T10:48:23.901Z,9.77
2019-04-04T10:50:52.201Z,10.17
2019-04-04T10:53:20.467Z,11.20
2019-04-04T10:55:48.772Z,11.80
2019-04-04T10:58:17.032Z,11.33
2019-04-04T11:00:45.329Z,11.07
2019-04-04T11:03:13.601Z,11.30
2019-04-04T11:05:41.938Z,11.07
2019-04-04T11:08:10.260Z,10.60
2019-04-04T11:10:38.600Z,11.77
2019-04-04T11:13:06.939Z,11.27
2019-04-04T11:15:35.245Z,12.23
2019-04-04T11:18:03.565Z,11.67
2019-04-04T11:20:31.873Z,11.57
2019-04-04T11:23:00.119Z,11.23
2019-04-04T11:25:28.352Z,11.50
2019-04-04T11:27:56.681Z,11.20
2019-04-04T11:30:24.983Z,12.50
2019-04-04T11:32:53.234Z,12.83
2019-04-04T11:35:21.551Z,13.57
2019-04-04T11:37:49.880Z,12.23
2019-04-04T11:40:18.112Z,11.97
2019-04-04T11:42:46.371Z,12.13
2019-04-04T11:45:14.675Z,12.20
2019-04-04T11:47:43.006Z,12.57
2019-04-04T11:50:11.396Z,11.60
2019-04-04T11:52:39.657Z,13.37
2019-04-04T11:55:08.057Z,11.37
2019-04-04T11:57:36.467Z,12.43
2019-04-04T12:00:06.299Z,13.10
2019-04-04T12:02:34.552Z,13.20
2019-04-04T12:05:02.863Z,13.53
2019-04-04T12:07:31.125Z,13.77
2019-04-04T12:10:07.367Z,14.00
2019-04-04T12:12:29.291Z,14.33
2019-04-04T12:14:57.560Z,15.47
2019-04-04T12:17:25.787Z,11.97
2019-04-04T12:19:54.036Z,11.47
2019-04-04T12:22:22.257Z,10.60
2019-04-04T12:24:50.508Z,9.87
2019-04-04T12:27:18.747Z,9.80
2019-04-04T12:29:47.002Z,9.13
2019-04-04T12:32:15.292Z,9.50
2019-04-04T12:34:43.545Z,9.27
2019-04-04T12:37:11.765Z,8.97
2019-04-04T12:39:40.037Z,9.27
2019-04-04T12:42:08.331Z,9.47
2019-04-04T12:44:36.561Z,8.50
2019-04-04T12:47:04.893Z,8.93
2019-04-04T12:49:33.112Z,8.57
2019-04-04T12:52:01.474Z,8.63
2019-04-04T12:54:29.698Z,8.37
2019-04-04T12:56:57.953Z,8.03
2019-04-04T12:59:26.252Z,8.20
2019-04-04T13:01:54.575Z,7.97
2019-04-04T13:04:30.947Z,8.07
2019-04-04T13:06:52.720Z,7.53
2019-04-04T13:09:21.027Z,7.27
2019-04-04T13:11:49.268Z,7.13
2019-04-04T13:14:17.573Z,7.23
2019-04-04T13:16:45.840Z,7.13
2019-04-04T13:19:14.056Z,7.40
2019-04-04T13:21:42.396Z,7.37
2019-04-04T13:24:10.710Z,7.70
2019-04-04T13:26:38.957Z,7.30
2019-04-04T13:29:07.201Z,7.90
2019-04-04T13:31:35.457Z,8.57
2019-04-04T13:34:03.758Z,9.13
2019-04-04T13:36:32.090Z,9.53
2019-04-04T13:39:00.321Z,8.60
2019-04-04T13:41:28.589Z,9.47
2019-04-04T13:43:56.818Z,12.07
2019-04-04T13:46:29.195Z,8.17
2019-04-04T13:48:55.090Z,8.40
2019-04-04T13:51:25.455Z,8.40
2019-04-04T13:53:53.232Z,8.57
2019-04-04T13:56:21.564Z,10.07
2019-04-04T13:58:49.819Z,9.53
2019-04-04T14:01:18.133Z,7.13
2019-04-04T14:03:48.263Z,6.80
2019-04-04T14:06:38.465Z,6.37
2019-04-04T14:09:12.012Z,6.17
2019-04-04T14:11:41.237Z,5.70
2019-04-04T14:14:08.604Z,5.80
2019-04-04T14:16:36.861Z,4.67
2019-04-04T14:19:05.165Z,4.40
2019-04-04T14:21:33.481Z,4.10
2019-04-04T14:24:12.351Z,4.13
2019-04-04T14:26:32.101Z,3.70
2019-04-04T14:29:03.701Z,4.00
2019-04-04T14:31:30.481Z,4.30
2019-04-04T14:33:58.714Z,4.17
2019-04-04T14:36:27.037Z,4.07
2019-04-04T14:38:55.261Z,4.13
2019-04-04T14:41:23.583Z,3.40
2019-04-04T14:43:51.881Z,3.10
2019-04-04T14:46:20.136Z,3.33
2019-04-04T14:48:48.434Z,2.80
2019-04-04T14:51:16.653Z,3.00
2019-04-04T14:53:44.901Z,2.90
2019-04-04T14:56:13.206Z,2.90
2019-04-04T14:58:41.456Z,2.90
2019-04-04T15:01:09.680Z,2.80
2019-04-04T15:03:38.007Z,2.20
2019-04-04T15:06:06.308Z,2.43
2019-04-04T15:08:34.723Z,2.50
2019-04-04T15:11:02.963Z,2.57
2019-04-04T15:13:34.642Z,2.50
2019-04-04T15:16:10.580Z,2.20
2019-04-04T15:18:40.597Z,2.23
2019-04-04T15:21:18.921Z,2.40
2019-04-04T15:23:52.331Z,2.47
2019-04-04T15:26:23.901Z,2.73
2019-04-04T15:28:52.630Z,2.60
2019-04-04T15:31:21.758Z,2.47
2019-04-04T15:33:50.976Z,2.63
2019-04-04T15:36:19.262Z,2.40
2019-04-04T15:38:47.512Z,2.37
2019-04-04T15:41:15.806Z,2.30
2019-04-04T15:43:44.064Z,2.67
2019-04-04T15:46:12.350Z,2.30
2019-04-04T15:48:40.596Z,2.40
2019-04-04T15:51:08.816Z,2.10
2019-04-04T15:53:37.069Z,2.50
2019-04-04T15:56:05.328Z,2.50
2019-04-04T15:58:33.632Z,2.60
2019-04-04T16:01:01.926Z,3.00
2019-04-04T16:03:30.254Z,2.40
2019-04-04T16:05:58.566Z,2.60
2019-04-04T16:08:26.897Z,2.40
2019-04-04T16:10:55.503Z,2.60
2019-04-04T16:13:23.947Z,2.63
2019-04-04T16:15:52.204Z,3.20
2019-04-04T16:18:20.463Z,2.50
2019-04-04T16:20:48.762Z,2.60
2019-04-04T16:23:17.094Z,2.70
2019-04-04T16:25:45.468Z,2.97
2019-04-04T16:28:14.147Z,2.80
2019-04-04T16:30:42.525Z,2.50
2019-04-04T16:33:10.934Z,2.57
2019-04-04T16:35:39.156Z,3.00
2019-04-04T16:38:07.557Z,2.47
2019-04-04T16:40:35.940Z,2.70
2019-04-04T16:43:04.233Z,2.70
2019-04-04T16:45:32.488Z,2.50
2019-04-04T16:48:00.889Z,2.67
2019-04-04T16:50:29.180Z,2.80
2019-04-04T16:52:57.427Z,2.63
2019-04-04T16:55:25.724Z,2.90
2019-04-04T16:57:54.053Z,2.90
2019-04-04T17:00:22.448Z,2.40
2019-04-04T17:02:50.777Z,2.67
2019-04-04T17:05:19.100Z,2.83
2019-04-04T17:07:47.426Z,2.90
2019-04-04T17:10:15.721Z,4.37
2019-04-04T17:12:43.971Z,3.13
2019-04-04T17:15:12.957Z,2.80
2019-04-04T17:17:41.277Z,2.77
2019-04-04T17:20:12.589Z,2.80
2019-04-04T17:22:40.969Z,2.80
2019-04-04T17:25:09.366Z,3.00
2019-04-04T17:27:37.643Z,3.20
2019-04-04T17:30:08.264Z,3.60
2019-04-04T17:32:37.403Z,3.57
2019-04-04T17:35:06.405Z,3.10
2019-04-04T17:37:35.128Z,3.50
2019-04-04T17:40:04.985Z,3.77
2019-04-04T17:42:33.738Z,3.87
2019-04-04T17:45:03.156Z,4.10
2019-04-04T17:47:31.773Z,3.77
2019-04-04T17:50:00.688Z,3.87
2019-04-04T17:52:28.938Z,3.97
2019-04-04T17:54:57.338Z,4.57
2019-04-04T17:57:27.267Z,4.70
2019-04-04T17:59:55.575Z,5.60
2019-04-04T18:02:23.952Z,4.70
2019-04-04T18:04:52.354Z,5.33
2019-04-04T18:07:20.644Z,6.90
2019-04-04T18:09:48.979Z,6.20
2019-04-04T18:12:17.204Z,6.17
2019-04-04T18:14:45.533Z,5.93
2019-04-04T18:17:13.859Z,5.13
2019-04-04T18:19:42.167Z,7.37
2019-04-04T18:22:10.420Z,10.07
2019-04-04T18:24:39.695Z,10.30
2019-04-04T18:27:08.017Z,12.53
2019-04-04T18:29:37.065Z,11.63
2019-04-04T18:32:05.448Z,13.00
2019-04-04T18:34:33.707Z,13.10
2019-04-04T18:37:02.302Z,12.93
2019-04-04T18:39:30.629Z,12.87
2019-04-04T18:41:58.957Z,13.73
2019-04-04T18:44:27.263Z,11.40
2019-04-04T18:46:55.509Z,9.57
2019-04-04T18:49:23.800Z,9.13
2019-04-04T18:51:52.224Z,10.67
2019-04-04T18:54:20.576Z,14.93
2019-04-04T18:56:48.924Z,16.73
2019-04-04T18:59:17.280Z,16.70
2019-04-04T19:01:45.536Z,16.87
2019-04-04T19:04:13.761Z,17.77
2019-04-04T19:06:42.055Z,17.90
2019-04-04T19:09:15.141Z,17.87
2019-04-04T19:11:41.968Z,17.87
2019-04-04T19:14:10.289Z,17.83
2019-04-04T19:16:38.592Z,17.97
2019-04-04T19:19:06.938Z,18.80
2019-04-04T19:21:35.183Z,18.77
2019-04-04T19:24:03.527Z,19.93
2019-04-04T19:26:31.891Z,20.43
2019-04-04T19:29:00.334Z,20.63
2019-04-04T19:31:28.860Z,21.03
2019-04-04T19:33:57.200Z,21.83
2019-04-04T19:36:25.488Z,21.80
2019-04-04T19:38:53.836Z,20.80
2019-04-04T19:41:22.282Z,20.93
2019-04-04T19:43:50.618Z,22.23
2019-04-04T19:46:18.953Z,21.27
2019-04-04T19:48:48.491Z,21.67
2019-04-04T19:51:16.816Z,21.63
2019-04-04T19:53:47.178Z,21.27
2019-04-04T19:56:15.580Z,20.83
2019-04-04T19:58:43.912Z,20.47
2019-04-04T20:01:12.243Z,21.40
2019-04-04T20:03:40.496Z,21.10
2019-04-04T20:06:08.801Z,19.20
2019-04-04T20:08:37.134Z,18.80
2019-04-04T20:11:05.385Z,20.57
2019-04-04T20:13:33.662Z,19.77
2019-04-04T20:16:01.964Z,18.93
2019-04-04T20:18:30.220Z,20.57
2019-04-04T20:20:58.448Z,20.93
2019-04-04T20:23:26.710Z,20.23
2019-04-04T20:25:54.952Z,20.70
2019-04-04T20:28:23.357Z,20.77
2019-04-04T20:30:51.704Z,21.37
2019-04-04T20:33:20.010Z,20.17
2019-04-04T20:35:48.273Z,20.40
2019-04-04T20:38:16.872Z,21.03
2019-04-04T20:40:45.461Z,21.37
2019-04-04T20:43:13.815Z,20.10
2019-04-04T20:45:42.176Z,21.20
2019-04-04T20:48:10.520Z,19.40
2019-04-04T20:50:38.821Z,19.27
2019-04-04T20:53:07.460Z,19.47
2019-04-04T20:55:35.761Z,19.40
2019-04-04T20:58:04.088Z,20.33
2019-04-04T21:00:32.460Z,18.73
2019-04-04T21:03:00.801Z,18.83
2019-04-04T21:05:29.053Z,19.10
2019-04-04T21:07:57.315Z,19.00
2019-04-04T21:10:25.605Z,19.30
2019-04-04T21:12:53.868Z,19.67
2019-04-04T21:15:22.160Z,19.40
2019-04-04T21:17:50.421Z,20.47
2019-04-04T21:20:18.652Z,19.20
2019-04-04T21:22:46.988Z,20.13
2019-04-04T21:25:15.296Z,20.37
2019-04-04T21:27:43.633Z,19.73
2019-04-04T21:30:11.925Z,18.63
2019-04-04T21:32:40.224Z,17.60
2019-04-04T21:35:08.564Z,19.37
2019-04-04T21:37:36.776Z,19.73
2019-04-04T21:40:05.413Z,19.50
2019-04-04T21:42:34.308Z,19.50
2019-04-04T21:45:02.746Z,20.23
2019-04-04T21:47:30.964Z,20.63
2019-04-04T21:49:59.229Z,19.83
2019-04-04T21:52:27.457Z,20.27
2019-04-04T21:54:55.718Z,20.47
2019-04-04T21:57:23.937Z,18.93
2019-04-04T21:59:52.276Z,18.27
2019-04-04T22:02:20.573Z,20.03
2019-04-04T22:04:48.836Z,18.37
2019-04-04T22:07:17.141Z,19.77
2019-04-04T22:09:45.472Z,17.90
2019-04-04T22:12:13.694Z,17.17
2019-04-04T22:14:41.949Z,19.00
2019-04-04T22:17:10.182Z,19.50
2019-04-04T22:19:38.509Z,18.57
2019-04-04T22:22:06.881Z,18.53
2019-04-04T22:24:35.147Z,19.57
2019-04-04T22:27:03.451Z,19.27
2019-04-04T22:29:31.708Z,18.60
2019-04-04T22:31:59.937Z,18.53
2019-04-04T22:34:28.302Z,19.57
2019-04-04T22:36:56.701Z,19.53
2019-04-04T22:39:25.119Z,18.63
2019-04-04T22:41:53.496Z,17.43
2019-04-04T22:44:33.773Z,17.40
2019-04-04T22:46:51.689Z,17.73
2019-04-04T22:49:19.923Z,19.00
2019-04-04T22:51:48.176Z,17.93
2019-04-04T22:54:16.393Z,16.80
2019-04-04T22:56:44.720Z,18.40
2019-04-04T22:59:12.936Z,18.27
2019-04-04T23:01:41.268Z,17.30
2019-04-04T23:04:09.492Z,16.83
2019-04-04T23:06:37.833Z,17.97
2019-04-04T23:09:06.933Z,18.87
2019-04-04T23:11:35.199Z,19.90
2019-04-04T23:14:03.492Z,18.37
2019-04-04T23:16:31.748Z,17.80
2019-04-04T23:18:59.973Z,19.23
2019-04-04T23:21:28.306Z,18.93
2019-04-04T23:23:56.533Z,18.20
2019-04-04T23:26:24.793Z,19.07
2019-04-04T23:28:53.016Z,19.63
2019-04-04T23:31:21.277Z,18.97
2019-04-04T23:33:49.534Z,18.93
2019-04-04T23:36:17.760Z,19.97
2019-04-04T23:38:46.020Z,19.03
2019-04-04T23:41:14.248Z,18.90
2019-04-04T23:43:42.580Z,19.50
2019-04-04T23:46:10.837Z,19.40
2019-04-04T23:48:39.161Z,19.53
2019-04-04T23:51:07.387Z,18.90
2019-04-04T23:53:35.717Z,19.33
2019-04-04T23:56:04.113Z,19.90
2019-04-04T23:58:32.445Z,19.23
